FA69 weather

Duda Airstrip
Belle Glade, Florida, United States

Public forecast

Using degrees Fahrenheit for public forecast. Weather courtesy of forecast.io.

Closest aviation weather report (METAR) to Duda Airstrip

Closest report is Palm Beach International Airport, 29.6 nm (54.9 km) ENE. Retrieved 2020/05/27 10:53 UTC (52 minutes ago):

KPBI 271053Z 21004KT 10SM FEW014 SCT250 24/23 A2994 RMK AO2 SLP137 T02440228

Closest aviation forecast (TAF) to Duda Airstrip

Closest forecast is Palm Beach International Airport, 29.6 nm (54.9 km) ENE. Retrieved 2020/05/27 06:28 UTC (5 hours ago):

TAF KPBI 270520Z 2706/2806 VRB05KT P6SM FEW025 SCT040 BKN250 FM271500 19010KT P6SM VCSH SCT030 BKN050 FM271900 15012KT P6SM VCTS SCT025CB BKN050 FM280000 VRB05KT P6SM FEW025 SCT060 BKN120